createdAt,value
2022-09-17T00:01:31.527Z,10.70
2022-09-17T00:04:04.627Z,10.70
2022-09-17T00:06:34.922Z,10.70
2022-09-17T00:09:03.551Z,10.70
2022-09-17T00:11:36.193Z,10.70
2022-09-17T00:14:06.049Z,10.70
2022-09-17T00:16:36.942Z,10.70
2022-09-17T00:19:06.421Z,10.60
2022-09-17T00:21:34.456Z,10.60
2022-09-17T00:24:04.725Z,10.60
2022-09-17T00:26:35.156Z,10.60
2022-09-17T00:29:03.559Z,10.50
2022-09-17T00:31:32.270Z,10.50
2022-09-17T00:34:01.541Z,10.50
2022-09-17T00:36:29.668Z,10.40
2022-09-17T00:38:59.521Z,10.40
2022-09-17T00:41:30.706Z,10.30
2022-09-17T00:44:01.527Z,10.20
2022-09-17T00:46:34.312Z,10.20
2022-09-17T00:49:05.739Z,10.10
2022-09-17T00:51:37.126Z,10.10
2022-09-17T00:54:07.994Z,10.00
2022-09-17T00:56:41.150Z,10.00
2022-09-17T00:59:11.518Z,9.90
2022-09-17T01:01:39.770Z,9.90
2022-09-17T01:04:08.087Z,9.90
2022-09-17T01:06:42.993Z,9.80
2022-09-17T01:09:26.188Z,9.70
2022-09-17T01:12:18.694Z,9.70
2022-09-17T01:15:09.341Z,9.70
2022-09-17T01:17:44.317Z,9.70
2022-09-17T01:20:45.142Z,9.70
2022-09-17T01:23:31.478Z,9.70
2022-09-17T01:26:16.426Z,9.70
2022-09-17T01:28:50.377Z,9.60
2022-09-17T01:31:37.281Z,9.50
2022-09-17T01:34:16.260Z,9.50
2022-09-17T01:36:53.907Z,9.50
2022-09-17T01:39:32.652Z,9.40
2022-09-17T01:42:11.343Z,9.40
2022-09-17T01:44:46.309Z,9.30
2022-09-17T01:47:21.353Z,9.40
2022-09-17T01:49:52.526Z,9.30
2022-09-17T01:52:22.034Z,9.30
2022-09-17T01:54:55.219Z,9.30
2022-09-17T01:57:28.650Z,9.30
2022-09-17T02:00:01.071Z,9.30
2022-09-17T02:02:34.998Z,9.20
2022-09-17T02:05:08.559Z,9.20
2022-09-17T02:07:43.293Z,9.20
2022-09-17T02:10:14.992Z,9.20
2022-09-17T02:12:47.228Z,9.20
2022-09-17T02:15:22.510Z,9.20
2022-09-17T02:17:56.808Z,9.20
2022-09-17T02:20:28.883Z,9.20
2022-09-17T02:22:59.261Z,9.20
2022-09-17T02:25:34.590Z,9.20
2022-09-17T02:28:07.162Z,9.20
2022-09-17T02:30:35.182Z,9.20
2022-09-17T02:33:08.598Z,9.20
2022-09-17T02:35:37.968Z,9.20
2022-09-17T02:38:05.975Z,9.10
2022-09-17T02:40:39.451Z,9.10
2022-09-17T02:43:18.583Z,9.10
2022-09-17T02:46:00.540Z,9.10
2022-09-17T02:48:56.563Z,9.10
2022-09-17T02:51:37.368Z,9.10
2022-09-17T02:54:13.446Z,9.10
2022-09-17T02:56:47.837Z,9.10
2022-09-17T02:59:20.937Z,9.00
2022-09-17T03:01:56.015Z,9.00
2022-09-17T03:04:28.479Z,9.00
2022-09-17T03:06:59.461Z,9.00
2022-09-17T03:09:27.659Z,9.00
2022-09-17T03:11:55.809Z,9.00
2022-09-17T03:14:23.791Z,9.00
2022-09-17T03:16:51.736Z,9.00
2022-09-17T03:19:19.716Z,9.00
2022-09-17T03:21:49.044Z,9.00
2022-09-17T03:24:17.020Z,9.00
2022-09-17T03:26:45.008Z,9.00
2022-09-17T03:29:12.941Z,9.00
2022-09-17T03:31:40.957Z,9.00
2022-09-17T03:34:09.124Z,9.00
2022-09-17T03:36:37.125Z,9.00
2022-09-17T03:39:06.666Z,8.90
2022-09-17T03:41:34.626Z,8.90
2022-09-17T03:44:03.000Z,8.90
2022-09-17T03:46:31.037Z,8.90
2022-09-17T03:48:59.056Z,8.80
2022-09-17T03:51:27.285Z,8.80
2022-09-17T03:53:55.224Z,8.80
2022-09-17T03:56:24.682Z,8.80
2022-09-17T03:58:52.641Z,8.80
2022-09-17T04:01:20.635Z,8.70
2022-09-17T04:03:48.617Z,8.70
2022-09-17T04:06:16.566Z,8.70
2022-09-17T04:08:44.594Z,8.70
2022-09-17T04:11:12.738Z,8.70
2022-09-17T04:13:42.082Z,8.60
2022-09-17T04:16:10.140Z,8.60
2022-09-17T04:18:38.535Z,8.70
2022-09-17T04:21:07.115Z,8.80
2022-09-17T04:23:35.068Z,8.80
2022-09-17T04:26:03.188Z,8.80
2022-09-17T04:28:31.257Z,8.80
2022-09-17T04:31:00.642Z,8.70
2022-09-17T04:33:28.598Z,8.70
2022-09-17T04:35:56.518Z,8.80
2022-09-17T04:38:24.541Z,8.70
2022-09-17T04:40:52.619Z,8.80
2022-09-17T04:43:20.572Z,8.70
2022-09-17T04:45:49.262Z,8.70
2022-09-17T04:48:18.737Z,8.70
2022-09-17T04:50:46.663Z,8.60
2022-09-17T04:53:14.671Z,8.60
2022-09-17T04:55:43.969Z,8.60
2022-09-17T04:58:12.483Z,8.60
2022-09-17T05:00:41.761Z,8.60
2022-09-17T05:03:09.996Z,8.60
2022-09-17T05:05:39.340Z,8.60
2022-09-17T05:08:08.281Z,8.60
2022-09-17T05:10:36.345Z,8.60
2022-09-17T05:13:04.320Z,8.60
2022-09-17T05:15:32.426Z,8.60
2022-09-17T05:18:00.687Z,8.50
2022-09-17T05:20:28.647Z,8.50
2022-09-17T05:22:57.955Z,8.40
2022-09-17T05:25:26.161Z,8.50
2022-09-17T05:27:54.756Z,8.50
2022-09-17T05:30:23.237Z,8.50
2022-09-17T05:32:59.124Z,8.50
2022-09-17T05:35:27.113Z,8.50
2022-09-17T05:37:59.833Z,8.50
2022-09-17T05:40:28.277Z,8.50
2022-09-17T05:42:59.725Z,8.60
2022-09-17T05:45:27.821Z,8.60
2022-09-17T05:47:57.222Z,8.60
2022-09-17T05:50:25.250Z,8.60
2022-09-17T05:52:53.502Z,8.60
2022-09-17T05:55:24.927Z,8.60
2022-09-17T05:57:52.908Z,8.60
2022-09-17T06:00:21.290Z,8.70
2022-09-17T06:02:55.980Z,8.70
2022-09-17T06:05:24.064Z,8.70
2022-09-17T06:07:52.641Z,8.80
2022-09-17T06:10:21.954Z,8.80
2022-09-17T06:12:49.870Z,8.90
2022-09-17T06:15:21.079Z,9.00
2022-09-17T06:17:49.180Z,9.10
2022-09-17T06:20:17.340Z,9.30
2022-09-17T06:22:45.344Z,9.50
2022-09-17T06:25:14.076Z,9.70
2022-09-17T06:27:43.353Z,9.80
2022-09-17T06:30:11.739Z,9.90
2022-09-17T06:32:39.751Z,9.90
2022-09-17T06:35:08.950Z,10.00
2022-09-17T06:37:40.236Z,10.00
2022-09-17T06:40:09.911Z,10.00
2022-09-17T06:42:37.926Z,10.10
2022-09-17T06:45:12.117Z,10.20
2022-09-17T06:47:42.467Z,10.30
2022-09-17T06:50:11.000Z,10.30
2022-09-17T06:52:39.262Z,10.40
2022-09-17T06:55:07.680Z,10.30
2022-09-17T06:57:35.628Z,10.30
2022-09-17T07:00:05.012Z,10.20
2022-09-17T07:02:34.389Z,10.20
2022-09-17T07:05:02.614Z,10.20
2022-09-17T07:07:30.833Z,10.20
2022-09-17T07:09:58.797Z,10.30
2022-09-17T07:12:26.694Z,10.40
2022-09-17T07:14:54.682Z,10.50
2022-09-17T07:17:23.280Z,10.50
2022-09-17T07:19:52.583Z,10.60
2022-09-17T07:22:20.807Z,10.70
2022-09-17T07:24:48.792Z,10.80
2022-09-17T07:27:16.843Z,11.00
2022-09-17T07:29:44.786Z,11.00
2022-09-17T07:32:12.780Z,11.10
2022-09-17T07:34:40.805Z,11.10
2022-09-17T07:37:10.142Z,11.20
2022-09-17T07:39:38.077Z,11.30
2022-09-17T07:42:06.293Z,11.30
2022-09-17T07:44:34.210Z,11.30
2022-09-17T07:47:02.195Z,11.40
2022-09-17T07:49:31.064Z,11.40
2022-09-17T07:52:00.542Z,11.60
2022-09-17T07:54:30.337Z,11.60
2022-09-17T07:56:58.503Z,11.70
2022-09-17T07:59:26.517Z,11.80
2022-09-17T08:01:54.541Z,11.90
2022-09-17T08:04:23.348Z,11.90
2022-09-17T08:06:51.558Z,11.90
2022-09-17T08:09:19.708Z,11.90
2022-09-17T08:11:56.085Z,11.90
2022-09-17T08:14:29.493Z,12.00
2022-09-17T08:16:58.313Z,12.00
2022-09-17T08:19:26.969Z,12.10
2022-09-17T08:21:55.096Z,12.10
2022-09-17T08:24:23.283Z,12.20
2022-09-17T08:26:52.954Z,12.30
2022-09-17T08:29:20.990Z,12.30
2022-09-17T08:31:49.298Z,12.40
2022-09-17T08:34:17.316Z,12.40
2022-09-17T08:36:45.355Z,12.50
2022-09-17T08:39:13.880Z,12.50
2022-09-17T08:41:51.384Z,12.60
2022-09-17T08:44:40.261Z,12.60
2022-09-17T08:47:15.257Z,12.80
2022-09-17T08:49:49.599Z,12.90
2022-09-17T08:52:50.954Z,12.90
2022-09-17T08:55:29.748Z,13.10
2022-09-17T08:58:22.322Z,13.30
2022-09-17T09:00:58.087Z,13.30
2022-09-17T09:03:35.827Z,13.40
2022-09-17T09:06:08.483Z,13.60
2022-09-17T09:08:43.996Z,13.70
2022-09-17T09:11:16.282Z,13.60
2022-09-17T09:13:47.246Z,13.40
2022-09-17T09:16:20.359Z,13.70
2022-09-17T09:18:52.481Z,13.90
2022-09-17T09:21:28.063Z,14.00
2022-09-17T09:24:02.090Z,14.10
2022-09-17T09:26:44.816Z,14.20
2022-09-17T09:29:23.953Z,14.30
2022-09-17T09:32:16.187Z,14.40
2022-09-17T09:34:45.350Z,14.40
2022-09-17T09:37:20.854Z,14.40
2022-09-17T09:39:51.157Z,14.30
2022-09-17T09:42:29.647Z,14.00
2022-09-17T09:45:05.141Z,13.90
2022-09-17T09:48:00.806Z,14.00
2022-09-17T09:51:01.866Z,14.10
2022-09-17T09:53:59.950Z,14.00
2022-09-17T09:56:49.122Z,14.20
2022-09-17T09:59:17.132Z,14.30
2022-09-17T10:01:46.341Z,14.40
2022-09-17T10:04:43.030Z,14.40
2022-09-17T10:07:12.637Z,14.30
2022-09-17T10:09:47.204Z,14.10
2022-09-17T10:12:19.197Z,14.10
2022-09-17T10:14:48.062Z,14.30
2022-09-17T10:17:19.654Z,14.60
2022-09-17T10:20:19.441Z,14.80
2022-09-17T10:22:51.217Z,15.20
2022-09-17T10:25:28.491Z,14.80
2022-09-17T10:27:58.526Z,14.60
2022-09-17T10:30:27.506Z,14.60
2022-09-17T10:33:19.424Z,14.70
2022-09-17T10:36:04.397Z,14.80
2022-09-17T10:38:35.413Z,14.60
2022-09-17T10:41:15.537Z,14.50
2022-09-17T10:43:44.337Z,14.60
2022-09-17T10:46:17.069Z,14.80
2022-09-17T10:48:49.558Z,14.80
2022-09-17T10:51:28.794Z,15.00
2022-09-17T10:54:13.774Z,15.10
2022-09-17T10:56:46.876Z,15.00
2022-09-17T10:59:38.871Z,15.30
2022-09-17T11:02:32.760Z,15.50
2022-09-17T11:05:09.031Z,15.20
2022-09-17T11:07:45.988Z,15.20
2022-09-17T11:10:22.612Z,15.40
2022-09-17T11:13:08.767Z,15.60
2022-09-17T11:15:52.775Z,15.50
2022-09-17T11:18:41.489Z,15.20
2022-09-17T11:21:29.989Z,15.10
2022-09-17T11:24:22.023Z,15.00
2022-09-17T11:26:58.158Z,15.20
2022-09-17T11:29:41.806Z,15.30
2022-09-17T11:32:24.747Z,15.10
2022-09-17T11:35:00.034Z,15.10
2022-09-17T11:37:32.627Z,15.30
2022-09-17T11:40:07.440Z,15.40
2022-09-17T11:42:45.540Z,15.70
2022-09-17T11:45:17.965Z,16.00
2022-09-17T11:47:50.963Z,16.10
2022-09-17T11:50:23.064Z,16.00
2022-09-17T11:53:04.241Z,15.80
2022-09-17T11:55:39.122Z,15.40
2022-09-17T11:58:15.506Z,14.90
2022-09-17T12:00:51.486Z,14.30
2022-09-17T12:03:27.310Z,13.60
2022-09-17T12:05:58.623Z,13.10
2022-09-17T12:08:35.087Z,12.80
2022-09-17T12:11:11.047Z,12.10
2022-09-17T12:13:45.001Z,11.90
2022-09-17T12:16:21.315Z,11.60
2022-09-17T12:18:58.089Z,11.70
2022-09-17T12:21:31.673Z,11.90
2022-09-17T12:24:05.882Z,12.10
2022-09-17T12:26:53.537Z,12.50
2022-09-17T12:29:48.014Z,13.00
2022-09-17T12:32:50.308Z,13.50
2022-09-17T12:35:52.761Z,13.90
2022-09-17T12:38:36.253Z,14.00
2022-09-17T12:41:12.073Z,13.90
2022-09-17T12:44:01.817Z,14.20
2022-09-17T12:46:44.087Z,14.50
2022-09-17T12:49:40.130Z,15.00
2022-09-17T12:52:14.610Z,15.00
2022-09-17T12:55:03.607Z,15.70
2022-09-17T12:57:41.031Z,16.10
2022-09-17T13:00:14.160Z,15.50
2022-09-17T13:02:46.842Z,13.80
2022-09-17T13:05:43.678Z,12.30
2022-09-17T13:08:51.986Z,11.60
2022-09-17T13:11:54.999Z,11.10
2022-09-17T13:14:34.959Z,11.10
2022-09-17T13:17:11.177Z,11.30
2022-09-17T13:19:45.771Z,11.60
2022-09-17T13:22:19.174Z,11.80
2022-09-17T13:24:49.193Z,12.20
2022-09-17T13:27:25.772Z,12.40
2022-09-17T13:30:04.716Z,12.60
2022-09-17T13:32:51.869Z,12.60
2022-09-17T13:35:48.264Z,12.60
2022-09-17T13:38:20.274Z,12.50
2022-09-17T13:40:54.414Z,12.40
2022-09-17T13:43:27.302Z,12.70
2022-09-17T13:46:12.723Z,12.90
2022-09-17T13:48:53.688Z,13.20
2022-09-17T13:51:55.613Z,13.50
2022-09-17T13:54:36.895Z,13.80
2022-09-17T13:57:16.134Z,13.80
2022-09-17T13:59:59.513Z,13.70
2022-09-17T14:02:35.336Z,13.20
2022-09-17T14:05:35.752Z,12.80
2022-09-17T14:08:16.283Z,12.60
2022-09-17T14:10:47.491Z,12.40
2022-09-17T14:13:55.203Z,12.30
2022-09-17T14:16:47.458Z,12.30
2022-09-17T14:19:51.078Z,12.40
2022-09-17T14:22:27.878Z,12.40
2022-09-17T14:24:56.795Z,12.40
2022-09-17T14:27:43.935Z,12.20
2022-09-17T14:30:18.630Z,11.90
2022-09-17T14:32:55.351Z,11.70
2022-09-17T14:35:31.063Z,11.50
2022-09-17T14:38:04.618Z,11.50
2022-09-17T14:40:35.445Z,11.30
2022-09-17T14:43:05.282Z,11.00
2022-09-17T14:45:37.610Z,10.90
2022-09-17T14:48:37.258Z,10.80
2022-09-17T14:51:28.513Z,10.80
2022-09-17T14:54:19.028Z,11.00
2022-09-17T14:56:59.593Z,11.20
2022-09-17T14:59:44.431Z,11.40
2022-09-17T15:02:42.302Z,11.60
2022-09-17T15:05:27.211Z,11.90
2022-09-17T15:08:08.998Z,12.00
2022-09-17T15:10:47.077Z,12.20
2022-09-17T15:13:19.438Z,12.30
2022-09-17T15:16:15.756Z,12.40
2022-09-17T15:18:49.168Z,12.50
2022-09-17T15:21:30.349Z,12.50
2022-09-17T15:24:03.937Z,12.60
2022-09-17T15:26:43.193Z,12.60
2022-09-17T15:29:14.019Z,12.70
2022-09-17T15:31:43.260Z,12.90
2022-09-17T15:34:13.335Z,13.10
2022-09-17T15:36:41.955Z,13.00
2022-09-17T15:39:32.000Z,12.90
2022-09-17T15:42:01.794Z,12.80
2022-09-17T15:44:31.435Z,12.40
2022-09-17T15:47:33.307Z,12.00
2022-09-17T15:50:19.356Z,11.80
2022-09-17T15:52:49.049Z,11.70
2022-09-17T15:55:35.749Z,11.60
2022-09-17T15:58:18.834Z,11.50
2022-09-17T16:00:47.650Z,11.50
2022-09-17T16:03:50.647Z,11.50
2022-09-17T16:06:42.687Z,11.60
2022-09-17T16:09:43.624Z,11.70
2022-09-17T16:12:15.498Z,11.70
2022-09-17T16:14:54.311Z,11.70
2022-09-17T16:17:35.852Z,11.70
2022-09-17T16:20:10.487Z,11.60
2022-09-17T16:22:40.128Z,11.60
2022-09-17T16:25:09.420Z,11.60
2022-09-17T16:27:47.013Z,11.50
2022-09-17T16:30:22.773Z,11.60
2022-09-17T16:32:51.695Z,11.60
2022-09-17T16:35:24.933Z,11.60
2022-09-17T16:37:55.731Z,11.60
2022-09-17T16:40:28.119Z,11.60
2022-09-17T16:42:59.163Z,11.60
2022-09-17T16:45:30.780Z,11.60
2022-09-17T16:48:02.279Z,11.60
2022-09-17T16:50:33.739Z,11.60
2022-09-17T16:53:05.374Z,11.60
2022-09-17T16:55:34.689Z,11.40
2022-09-17T16:58:05.521Z,11.40
2022-09-17T17:00:36.738Z,11.40
2022-09-17T17:03:07.970Z,11.40
2022-09-17T17:05:39.142Z,11.40
2022-09-17T17:08:09.119Z,11.30
2022-09-17T17:10:39.522Z,11.20
2022-09-17T17:13:08.470Z,11.20
2022-09-17T17:15:41.415Z,11.20
2022-09-17T17:18:10.307Z,11.10
2022-09-17T17:20:40.231Z,11.10
2022-09-17T17:23:10.303Z,11.20
2022-09-17T17:25:40.496Z,11.20
2022-09-17T17:28:09.444Z,11.10
2022-09-17T17:30:41.284Z,11.00
2022-09-17T17:33:12.201Z,11.00
2022-09-17T17:35:40.925Z,11.00
2022-09-17T17:38:09.761Z,11.10
2022-09-17T17:40:38.372Z,11.00
2022-09-17T17:43:06.902Z,11.10
2022-09-17T17:45:38.135Z,11.10
2022-09-17T17:48:08.412Z,11.10
2022-09-17T17:50:41.175Z,11.20
2022-09-17T17:53:15.128Z,11.20
2022-09-17T17:55:45.267Z,11.10
2022-09-17T17:58:14.052Z,11.00
2022-09-17T18:00:46.648Z,10.90
2022-09-17T18:03:20.793Z,10.90
2022-09-17T18:05:54.249Z,10.80
2022-09-17T18:08:24.101Z,10.70
2022-09-17T18:11:01.354Z,10.70
2022-09-17T18:13:30.031Z,10.70
2022-09-17T18:16:00.793Z,10.60
2022-09-17T18:18:35.059Z,10.60
2022-09-17T18:21:06.386Z,10.60
2022-09-17T18:23:37.949Z,10.60
2022-09-17T18:26:08.865Z,10.50
2022-09-17T18:28:39.336Z,10.50
2022-09-17T18:31:09.340Z,10.50
2022-09-17T18:33:39.608Z,10.60
2022-09-17T18:36:10.874Z,10.60
2022-09-17T18:38:42.185Z,10.50
2022-09-17T18:41:14.969Z,10.50
2022-09-17T18:43:44.042Z,10.50
2022-09-17T18:46:12.556Z,10.40
2022-09-17T18:48:45.409Z,10.40
2022-09-17T18:51:18.166Z,10.40
2022-09-17T18:53:51.573Z,10.50
2022-09-17T18:56:25.158Z,10.50
2022-09-17T18:59:07.747Z,10.50
2022-09-17T19:01:41.669Z,10.60
2022-09-17T19:04:11.236Z,10.60
2022-09-17T19:06:39.427Z,10.60
2022-09-17T19:09:07.444Z,10.70
2022-09-17T19:11:36.527Z,10.70
2022-09-17T19:14:05.292Z,10.70
2022-09-17T19:16:33.315Z,10.70
2022-09-17T19:19:01.543Z,10.70
2022-09-17T19:21:31.125Z,10.70
2022-09-17T19:23:59.196Z,10.60
2022-09-17T19:26:28.277Z,10.60
2022-09-17T19:28:58.505Z,10.50
2022-09-17T19:31:27.155Z,10.50
2022-09-17T19:33:55.778Z,10.60
2022-09-17T19:36:23.743Z,10.60
2022-09-17T19:38:53.378Z,10.60
2022-09-17T19:41:23.882Z,10.60
2022-09-17T19:43:53.415Z,10.60
2022-09-17T19:46:25.155Z,10.70
2022-09-17T19:48:54.868Z,10.70
2022-09-17T19:51:24.352Z,10.70
2022-09-17T19:53:54.134Z,10.70
2022-09-17T19:56:23.989Z,10.80
2022-09-17T19:58:52.594Z,10.80
2022-09-17T20:01:21.262Z,10.90
2022-09-17T20:03:49.445Z,10.90
2022-09-17T20:06:18.874Z,10.90
2022-09-17T20:08:47.417Z,10.90
2022-09-17T20:11:20.627Z,10.90
2022-09-17T20:13:49.085Z,10.90
2022-09-17T20:16:19.317Z,10.80
2022-09-17T20:18:48.437Z,10.80
2022-09-17T20:21:18.493Z,10.80
2022-09-17T20:23:47.345Z,10.80
2022-09-17T20:26:17.430Z,10.70
2022-09-17T20:28:45.961Z,10.60
2022-09-17T20:31:15.363Z,10.60
2022-09-17T20:33:43.747Z,10.60
2022-09-17T20:36:13.476Z,10.60
2022-09-17T20:41:31.626Z,10.50
2022-09-17T20:43:59.667Z,10.40
2022-09-17T20:46:29.507Z,10.40
2022-09-17T20:48:58.709Z,10.50
2022-09-17T20:51:28.616Z,10.50
2022-09-17T20:53:57.553Z,10.60
2022-09-17T20:56:27.798Z,10.60
2022-09-17T20:59:04.045Z,10.60
2022-09-17T21:01:34.500Z,10.60
2022-09-17T21:04:04.960Z,10.60
2022-09-17T21:06:34.989Z,10.60
2022-09-17T21:09:03.500Z,10.60
2022-09-17T21:11:32.357Z,10.60
2022-09-17T21:14:02.352Z,10.50
2022-09-17T21:16:30.938Z,10.50
2022-09-17T21:19:01.785Z,10.50
2022-09-17T21:21:30.687Z,10.40
2022-09-17T21:24:01.859Z,10.40
2022-09-17T21:26:30.652Z,10.40
2022-09-17T21:28:59.089Z,10.50
2022-09-17T21:31:32.578Z,10.50
2022-09-17T21:34:03.013Z,10.50
2022-09-17T21:36:32.664Z,10.50
2022-09-17T21:39:02.247Z,10.50
2022-09-17T21:41:31.187Z,10.60
2022-09-17T21:43:59.745Z,10.60
2022-09-17T21:46:30.314Z,10.50
2022-09-17T21:49:00.091Z,10.50
2022-09-17T21:51:30.506Z,10.50
2022-09-17T21:54:01.131Z,10.60
2022-09-17T21:56:30.868Z,10.60
2022-09-17T21:59:00.172Z,10.60
2022-09-17T22:01:32.154Z,10.60
2022-09-17T22:04:02.063Z,10.50
2022-09-17T22:06:32.100Z,10.50
2022-09-17T22:09:02.032Z,10.50
2022-09-17T22:11:33.550Z,10.50
2022-09-17T22:14:05.190Z,10.60
2022-09-17T22:16:36.064Z,10.60
2022-09-17T22:19:05.367Z,10.60
2022-09-17T22:21:35.286Z,10.60
2022-09-17T22:24:04.536Z,10.50
2022-09-17T22:26:34.659Z,10.50
2022-09-17T22:29:03.399Z,10.50
2022-09-17T22:31:31.510Z,10.40
2022-09-17T22:34:01.431Z,10.30
2022-09-17T22:36:30.115Z,10.20
2022-09-17T22:38:59.677Z,10.20
2022-09-17T22:41:29.508Z,10.20
2022-09-17T22:43:59.170Z,10.30
2022-09-17T22:46:28.879Z,10.30
2022-09-17T22:48:57.263Z,10.30
2022-09-17T22:51:29.198Z,10.30
2022-09-17T22:53:58.221Z,10.30
2022-09-17T22:56:28.116Z,10.30
2022-09-17T22:58:57.687Z,10.30
2022-09-17T23:01:29.094Z,10.20
2022-09-17T23:03:58.379Z,10.20
2022-09-17T23:06:29.588Z,10.20
2022-09-17T23:08:58.245Z,10.20
2022-09-17T23:11:28.588Z,10.20
2022-09-17T23:13:59.869Z,10.20
2022-09-17T23:16:28.002Z,10.30
2022-09-17T23:18:56.269Z,10.20
2022-09-17T23:21:24.214Z,10.20
2022-09-17T23:23:53.525Z,10.30
2022-09-17T23:26:23.625Z,10.30
2022-09-17T23:28:52.210Z,10.30
2022-09-17T23:31:22.218Z,10.20
2022-09-17T23:33:53.167Z,10.20
2022-09-17T23:36:22.740Z,10.20
2022-09-17T23:38:52.216Z,10.10
2022-09-17T23:41:23.763Z,10.10
2022-09-17T23:43:53.325Z,10.10
2022-09-17T23:46:22.870Z,10.10
2022-09-17T23:48:53.351Z,10.10
2022-09-17T23:51:21.682Z,10.10
2022-09-17T23:53:49.730Z,10.10
2022-09-17T23:56:21.158Z,10.10
2022-09-17T23:58:51.097Z,10.10
